createdAt,value
2019-05-07T00:01:23.493Z,10.07
2019-05-07T00:03:57.653Z,9.73
2019-05-07T00:06:32.742Z,10.03
2019-05-07T00:09:06.278Z,10.03
2019-05-07T00:11:37.725Z,10.43
2019-05-07T00:14:12.465Z,10.13
2019-05-07T00:16:44.720Z,10.77
2019-05-07T00:19:16.973Z,12.70
2019-05-07T00:21:48.329Z,11.30
2019-05-07T00:24:22.342Z,10.97
2019-05-07T00:26:56.894Z,10.80
2019-05-07T00:29:29.385Z,10.53
2019-05-07T00:32:04.837Z,10.70
2019-05-07T00:34:39.279Z,10.03
2019-05-07T00:37:17.202Z,9.77
2019-05-07T00:39:53.018Z,10.87
2019-05-07T00:42:38.349Z,9.93
2019-05-07T00:45:20.371Z,10.40
2019-05-07T00:47:45.876Z,10.33
2019-05-07T00:50:22.527Z,10.00
2019-05-07T00:52:55.645Z,10.57
2019-05-07T00:55:28.176Z,9.17
2019-05-07T00:58:02.553Z,10.20
2019-05-07T01:00:36.487Z,9.93
2019-05-07T01:03:09.805Z,10.47
2019-05-07T01:05:43.222Z,10.50
2019-05-07T01:08:14.389Z,10.53
2019-05-07T01:10:48.881Z,10.37
2019-05-07T01:13:23.408Z,11.57
2019-05-07T01:15:55.009Z,10.73
2019-05-07T01:18:27.816Z,10.67
2019-05-07T01:21:02.274Z,11.23
2019-05-07T01:23:33.722Z,10.97
2019-05-07T01:26:06.258Z,11.00
2019-05-07T01:28:47.735Z,11.50
2019-05-07T01:31:19.431Z,12.30
2019-05-07T01:33:55.429Z,11.00
2019-05-07T01:36:27.265Z,11.77
2019-05-07T01:38:59.701Z,11.53
2019-05-07T01:41:32.639Z,12.67
2019-05-07T01:44:07.185Z,13.10
2019-05-07T01:46:42.088Z,12.43
2019-05-07T01:49:14.142Z,12.97
2019-05-07T01:51:46.826Z,12.40
2019-05-07T01:54:19.365Z,12.90
2019-05-07T01:56:53.725Z,12.47
2019-05-07T01:59:28.627Z,14.13
2019-05-07T02:02:04.369Z,13.53
2019-05-07T02:04:38.729Z,14.23
2019-05-07T02:07:22.683Z,14.37
2019-05-07T02:09:57.193Z,13.53
2019-05-07T02:12:31.939Z,15.20
2019-05-07T02:15:06.082Z,14.30
2019-05-07T02:17:38.453Z,13.93
2019-05-07T02:20:13.120Z,14.23
2019-05-07T02:22:47.653Z,14.47
2019-05-07T02:25:22.117Z,14.93
2019-05-07T02:27:54.577Z,15.63
2019-05-07T02:30:26.748Z,14.97
2019-05-07T02:33:03.616Z,14.77
2019-05-07T02:35:34.021Z,14.87
2019-05-07T02:38:17.384Z,14.90
2019-05-07T02:40:53.644Z,16.27
2019-05-07T02:43:25.325Z,15.43
2019-05-07T02:46:26.089Z,17.20
2019-05-07T02:49:08.727Z,17.10
2019-05-07T02:51:47.022Z,17.13
2019-05-07T02:54:23.804Z,16.37
2019-05-07T02:56:55.282Z,17.00
2019-05-07T02:59:28.232Z,16.53
2019-05-07T03:02:03.644Z,15.80
2019-05-07T03:04:35.630Z,17.10
2019-05-07T03:07:07.396Z,16.93
2019-05-07T03:09:43.209Z,17.40
2019-05-07T03:12:14.483Z,17.37
2019-05-07T03:14:47.065Z,17.80
2019-05-07T03:17:19.484Z,17.00
2019-05-07T03:19:53.534Z,17.50
2019-05-07T03:22:25.278Z,18.23
2019-05-07T03:25:04.800Z,17.60
2019-05-07T03:27:38.003Z,17.73
2019-05-07T03:30:17.041Z,16.00
2019-05-07T03:32:55.884Z,18.00
2019-05-07T03:35:27.904Z,18.43
2019-05-07T03:38:03.130Z,18.60
2019-05-07T03:40:34.469Z,18.27
2019-05-07T03:43:06.624Z,18.23
2019-05-07T03:45:43.811Z,19.80
2019-05-07T03:48:23.947Z,18.83
2019-05-07T03:50:55.546Z,17.87
2019-05-07T03:53:27.207Z,18.80
2019-05-07T03:56:04.429Z,18.03
2019-05-07T03:58:37.283Z,18.13
2019-05-07T04:01:13.149Z,18.93
2019-05-07T04:03:44.378Z,18.67
2019-05-07T04:06:17.389Z,18.87
2019-05-07T04:08:52.982Z,17.90
2019-05-07T04:11:24.563Z,17.77
2019-05-07T04:13:57.892Z,18.20
2019-05-07T04:16:33.345Z,19.53
2019-05-07T04:19:04.849Z,19.43
2019-05-07T04:21:36.306Z,18.70
2019-05-07T04:24:24.257Z,18.80
2019-05-07T04:26:58.136Z,18.90
2019-05-07T04:29:29.884Z,18.87
2019-05-07T04:32:03.294Z,18.40
2019-05-07T04:34:45.617Z,19.37
2019-05-07T04:37:20.011Z,19.60
2019-05-07T04:39:55.542Z,19.47
2019-05-07T04:42:28.235Z,19.40
2019-05-07T04:45:04.271Z,19.50
2019-05-07T04:47:42.942Z,20.17
2019-05-07T04:50:13.923Z,17.30
2019-05-07T04:52:49.454Z,18.93
2019-05-07T04:55:22.931Z,18.83
2019-05-07T04:57:55.632Z,20.03
2019-05-07T05:00:29.380Z,19.13
2019-05-07T05:03:19.454Z,18.67
2019-05-07T05:05:53.263Z,20.53
2019-05-07T05:08:26.285Z,21.67
2019-05-07T05:10:58.134Z,20.60
2019-05-07T05:13:33.099Z,19.20
2019-05-07T05:16:05.671Z,19.87
2019-05-07T05:18:37.401Z,19.53
2019-05-07T05:21:14.479Z,19.43
2019-05-07T05:23:52.341Z,20.07
2019-05-07T05:26:25.133Z,20.33
2019-05-07T05:28:59.614Z,19.60
2019-05-07T05:31:33.029Z,20.90
2019-05-07T05:34:05.942Z,20.03
2019-05-07T05:36:37.198Z,20.43
2019-05-07T05:39:12.938Z,20.93
2019-05-07T05:41:46.482Z,19.93
2019-05-07T05:44:27.546Z,20.63
2019-05-07T05:47:02.332Z,20.83
2019-05-07T05:49:34.429Z,21.07
2019-05-07T05:52:08.545Z,20.90
2019-05-07T05:54:42.743Z,20.00
2019-05-07T05:57:16.197Z,19.10
2019-05-07T06:00:06.914Z,20.27
2019-05-07T06:02:44.199Z,20.13
2019-05-07T06:05:34.662Z,20.67
2019-05-07T06:08:21.097Z,19.93
2019-05-07T06:10:54.385Z,19.77
2019-05-07T06:13:26.994Z,21.13
2019-05-07T06:16:03.056Z,20.23
2019-05-07T06:18:41.823Z,19.50
2019-05-07T06:21:27.145Z,19.97
2019-05-07T06:24:03.961Z,18.40
2019-05-07T06:26:36.527Z,18.40
2019-05-07T06:29:09.024Z,19.57
2019-05-07T06:31:42.168Z,19.57
2019-05-07T06:34:15.922Z,19.03
2019-05-07T06:36:47.642Z,20.07
2019-05-07T06:39:19.123Z,19.10
2019-05-07T06:42:12.655Z,18.80
2019-05-07T06:44:45.393Z,16.73
2019-05-07T06:47:18.023Z,20.03
2019-05-07T06:49:49.243Z,18.47
2019-05-07T06:52:22.438Z,17.87
2019-05-07T06:54:56.305Z,17.50
2019-05-07T06:57:32.827Z,18.47
2019-05-07T07:00:22.739Z,18.73
2019-05-07T07:03:14.438Z,16.90
2019-05-07T07:05:48.532Z,17.57
2019-05-07T07:08:24.344Z,18.83
2019-05-07T07:11:03.005Z,15.33
2019-05-07T07:13:35.687Z,17.63
2019-05-07T07:16:08.126Z,16.00
2019-05-07T07:18:49.545Z,15.10
2019-05-07T07:21:14.126Z,13.20
2019-05-07T07:23:47.130Z,11.47
2019-05-07T07:26:18.311Z,13.33
2019-05-07T07:28:52.504Z,14.87
2019-05-07T07:31:31.721Z,15.23
2019-05-07T07:34:05.595Z,16.03
2019-05-07T07:36:42.234Z,16.13
2019-05-07T07:39:12.791Z,16.80
2019-05-07T07:41:47.154Z,16.70
2019-05-07T07:44:22.229Z,16.33
2019-05-07T07:46:53.890Z,17.60
2019-05-07T07:49:27.736Z,19.03
2019-05-07T07:51:59.962Z,16.93
2019-05-07T07:54:32.176Z,16.53
2019-05-07T07:57:14.023Z,17.10
2019-05-07T07:59:54.435Z,15.40
2019-05-07T08:02:34.242Z,17.73
2019-05-07T08:05:06.772Z,17.07
2019-05-07T08:07:38.542Z,15.70
2019-05-07T08:10:12.839Z,15.77
2019-05-07T08:12:44.233Z,15.50
2019-05-07T08:15:21.218Z,13.83
2019-05-07T08:17:52.161Z,15.93
2019-05-07T08:20:26.676Z,16.20
2019-05-07T08:22:59.317Z,17.30
2019-05-07T08:25:49.354Z,16.87
2019-05-07T08:28:23.204Z,16.53
2019-05-07T08:31:12.067Z,19.80
2019-05-07T08:33:46.920Z,17.67
2019-05-07T08:36:22.757Z,17.20
2019-05-07T08:38:56.610Z,16.90
2019-05-07T08:41:31.998Z,16.30
2019-05-07T08:44:17.055Z,16.27
2019-05-07T08:46:55.050Z,15.07
2019-05-07T08:49:36.797Z,15.57
2019-05-07T08:52:03.590Z,14.63
2019-05-07T08:54:35.511Z,15.53
2019-05-07T08:57:07.246Z,16.13
2019-05-07T08:59:39.031Z,15.93
2019-05-07T09:02:12.657Z,14.40
2019-05-07T09:04:45.650Z,14.20
2019-05-07T09:07:18.456Z,12.80
2019-05-07T09:09:52.309Z,11.50
2019-05-07T09:12:24.188Z,10.87
2019-05-07T09:14:55.145Z,11.73
2019-05-07T09:17:27.805Z,12.87
2019-05-07T09:19:58.541Z,11.93
2019-05-07T09:22:32.903Z,11.60
2019-05-07T09:25:07.415Z,12.30
2019-05-07T09:27:47.448Z,11.77
2019-05-07T09:30:22.142Z,13.60
2019-05-07T09:33:02.336Z,13.37
2019-05-07T09:35:36.293Z,12.33
2019-05-07T09:38:09.525Z,12.23
2019-05-07T09:40:42.125Z,11.83
2019-05-07T09:43:13.675Z,13.47
2019-05-07T09:45:46.352Z,13.20
2019-05-07T09:48:19.152Z,13.47
2019-05-07T09:50:53.069Z,14.90
2019-05-07T09:53:25.955Z,13.37
2019-05-07T09:56:01.987Z,14.37
2019-05-07T09:58:38.891Z,13.60
2019-05-07T10:01:08.027Z,14.90
2019-05-07T10:03:42.874Z,14.27
2019-05-07T10:06:14.981Z,14.73
2019-05-07T10:08:47.910Z,14.13
2019-05-07T10:11:22.518Z,13.73
2019-05-07T10:14:01.953Z,15.03
2019-05-07T10:16:41.871Z,14.17
2019-05-07T10:19:17.431Z,12.93
2019-05-07T10:21:52.962Z,14.77
2019-05-07T10:24:26.075Z,15.23
2019-05-07T10:26:58.049Z,15.30
2019-05-07T10:29:29.459Z,15.90
2019-05-07T10:32:03.466Z,14.93
2019-05-07T10:34:35.857Z,14.60
2019-05-07T10:37:08.118Z,13.93
2019-05-07T10:39:40.486Z,15.63
2019-05-07T10:42:15.429Z,17.17
2019-05-07T10:44:49.456Z,16.40
2019-05-07T10:47:31.661Z,15.43
2019-05-07T10:50:16.406Z,13.17
2019-05-07T10:52:49.492Z,15.07
2019-05-07T10:55:22.309Z,13.10
2019-05-07T10:57:54.701Z,15.03
2019-05-07T11:00:26.992Z,15.87
2019-05-07T11:02:58.787Z,15.23
2019-05-07T11:05:32.589Z,14.77
2019-05-07T11:08:05.008Z,15.70
2019-05-07T11:10:38.349Z,14.97
2019-05-07T11:13:10.083Z,17.17
2019-05-07T11:15:44.288Z,17.73
2019-05-07T11:18:27.216Z,16.53
2019-05-07T11:20:59.057Z,15.90
2019-05-07T11:23:32.579Z,15.07
2019-05-07T11:26:07.311Z,13.60
2019-05-07T11:28:40.081Z,17.20
2019-05-07T11:31:12.431Z,17.70
2019-05-07T11:33:44.753Z,17.47
2019-05-07T11:36:17.391Z,17.20
2019-05-07T11:38:52.792Z,17.70
2019-05-07T11:41:27.187Z,18.57
2019-05-07T11:44:03.941Z,18.03
2019-05-07T11:46:44.394Z,16.83
2019-05-07T11:49:26.269Z,17.07
2019-05-07T11:52:03.698Z,15.20
2019-05-07T11:54:37.246Z,17.23
2019-05-07T11:57:11.601Z,19.47
2019-05-07T11:59:44.483Z,16.73
2019-05-07T12:02:17.358Z,16.97
2019-05-07T12:04:50.136Z,17.27
2019-05-07T12:07:22.547Z,17.33
2019-05-07T12:09:55.232Z,16.63
2019-05-07T12:12:29.425Z,17.40
2019-05-07T12:15:04.429Z,16.90
2019-05-07T12:17:37.066Z,15.53
2019-05-07T12:20:10.086Z,17.10
2019-05-07T12:22:51.987Z,16.50
2019-05-07T12:25:23.962Z,16.60
2019-05-07T12:27:55.317Z,16.63
2019-05-07T12:30:38.416Z,16.27
2019-05-07T12:33:12.327Z,15.83
2019-05-07T12:35:45.046Z,15.10
2019-05-07T12:38:17.531Z,15.20
2019-05-07T12:40:49.369Z,13.60
2019-05-07T12:43:21.239Z,11.13
2019-05-07T12:45:54.042Z,12.03
2019-05-07T12:48:27.414Z,11.77
2019-05-07T12:50:59.808Z,12.00
2019-05-07T12:53:42.432Z,11.00
2019-05-07T12:56:14.998Z,11.57
2019-05-07T12:58:46.759Z,13.03
2019-05-07T13:01:25.546Z,12.77
2019-05-07T13:04:06.495Z,13.03
2019-05-07T13:06:40.579Z,13.17
2019-05-07T13:09:12.964Z,11.90
2019-05-07T13:11:45.620Z,11.77
2019-05-07T13:14:17.970Z,12.50
2019-05-07T13:16:52.184Z,11.50
2019-05-07T13:19:24.412Z,11.43
2019-05-07T13:21:56.129Z,11.80
2019-05-07T13:24:28.004Z,11.93
2019-05-07T13:27:03.069Z,21.33
2019-05-07T13:29:36.061Z,12.20
2019-05-07T13:32:08.822Z,10.73
2019-05-07T13:34:42.553Z,10.23
2019-05-07T13:37:16.766Z,10.50
2019-05-07T13:39:52.042Z,10.33
2019-05-07T13:42:43.974Z,10.90
2019-05-07T13:45:35.497Z,10.33
2019-05-07T13:48:12.224Z,9.73
2019-05-07T13:50:45.473Z,10.50
2019-05-07T13:53:18.144Z,11.57
2019-05-07T13:55:49.760Z,9.47
2019-05-07T13:58:22.998Z,10.53
2019-05-07T14:01:05.911Z,10.10
2019-05-07T14:03:38.723Z,9.77
2019-05-07T14:06:12.763Z,9.10
2019-05-07T14:08:45.122Z,9.43
2019-05-07T14:11:17.994Z,8.83
2019-05-07T14:13:49.530Z,8.90
2019-05-07T14:16:22.310Z,8.07
2019-05-07T14:18:55.483Z,8.60
2019-05-07T14:21:27.028Z,8.57
2019-05-07T14:23:59.634Z,8.37
2019-05-07T14:26:33.785Z,8.20
2019-05-07T14:29:06.097Z,7.93
2019-05-07T14:31:38.709Z,7.80
2019-05-07T14:34:12.865Z,11.77
2019-05-07T14:37:04.717Z,8.93
2019-05-07T14:39:35.921Z,9.50
2019-05-07T14:42:09.741Z,9.73
2019-05-07T14:44:49.373Z,9.43
2019-05-07T14:47:22.256Z,8.80
2019-05-07T14:49:55.403Z,9.53
2019-05-07T14:52:33.848Z,10.27
2019-05-07T14:55:08.489Z,9.50
2019-05-07T14:57:42.096Z,8.93
2019-05-07T15:00:14.181Z,9.20
2019-05-07T15:02:46.857Z,9.23
2019-05-07T15:05:18.801Z,9.43
2019-05-07T15:07:51.357Z,9.53
2019-05-07T15:10:24.092Z,8.97
2019-05-07T15:12:55.893Z,9.03
2019-05-07T15:15:27.227Z,8.83
2019-05-07T15:18:05.889Z,8.80
2019-05-07T15:20:38.369Z,8.83
2019-05-07T15:23:22.567Z,9.23
2019-05-07T15:25:55.453Z,9.07
2019-05-07T15:28:28.383Z,8.83
2019-05-07T15:31:14.765Z,9.10
2019-05-07T15:33:46.621Z,9.13
2019-05-07T15:36:19.433Z,9.10
2019-05-07T15:38:52.147Z,9.27
2019-05-07T15:41:24.166Z,8.67
2019-05-07T15:43:55.682Z,8.80
2019-05-07T15:46:27.076Z,8.93
2019-05-07T15:49:07.978Z,9.57
2019-05-07T15:51:41.856Z,9.40
2019-05-07T15:54:14.009Z,9.60
2019-05-07T15:56:46.543Z,8.63
2019-05-07T15:59:26.533Z,8.37
2019-05-07T16:01:59.649Z,8.70
2019-05-07T16:04:32.911Z,8.90
2019-05-07T16:07:07.573Z,9.53
2019-05-07T16:09:45.586Z,9.03
2019-05-07T16:12:19.548Z,9.13
2019-05-07T16:14:52.460Z,8.47
2019-05-07T16:17:26.549Z,9.50
2019-05-07T16:19:58.209Z,9.37
2019-05-07T16:22:32.778Z,9.03
2019-05-07T16:25:07.427Z,8.90
2019-05-07T16:27:44.961Z,8.97
2019-05-07T16:30:16.838Z,8.40
2019-05-07T16:32:48.570Z,9.07
2019-05-07T16:35:22.634Z,8.80
2019-05-07T16:37:53.473Z,8.80
2019-05-07T16:40:27.349Z,8.30
2019-05-07T16:42:59.145Z,8.17
2019-05-07T16:45:32.231Z,8.73
2019-05-07T16:48:06.413Z,9.03
2019-05-07T16:50:38.805Z,8.70
2019-05-07T16:53:26.318Z,9.30
2019-05-07T16:55:52.263Z,9.63
2019-05-07T16:58:25.795Z,9.43
2019-05-07T17:01:02.642Z,8.93
2019-05-07T17:03:36.071Z,10.03
2019-05-07T17:06:08.598Z,8.70
2019-05-07T17:08:43.653Z,8.80
2019-05-07T17:11:16.396Z,8.83
2019-05-07T17:13:49.206Z,9.20
2019-05-07T17:16:22.826Z,8.43
2019-05-07T17:18:54.904Z,9.17
2019-05-07T17:21:36.076Z,8.37
2019-05-07T17:24:07.409Z,8.90
2019-05-07T17:26:37.937Z,9.47
2019-05-07T17:29:12.048Z,8.90
2019-05-07T17:31:45.023Z,8.57
2019-05-07T17:34:17.793Z,8.50
2019-05-07T17:36:49.597Z,8.57
2019-05-07T17:39:22.668Z,8.60
2019-05-07T17:41:56.877Z,8.37
2019-05-07T17:44:29.600Z,8.20
2019-05-07T17:47:01.938Z,9.03
2019-05-07T17:49:36.484Z,8.43
2019-05-07T17:52:08.624Z,8.90
2019-05-07T17:54:42.380Z,7.73
2019-05-07T17:57:15.914Z,8.17
2019-05-07T17:59:47.081Z,8.67
2019-05-07T18:02:24.047Z,9.33
2019-05-07T18:04:57.994Z,10.33
2019-05-07T18:07:30.404Z,8.37
2019-05-07T18:10:03.094Z,8.77
2019-05-07T18:12:35.054Z,9.10
2019-05-07T18:15:07.468Z,8.40
2019-05-07T18:17:44.252Z,8.30
2019-05-07T18:20:16.183Z,11.37
2019-05-07T18:22:48.512Z,10.07
2019-05-07T18:25:21.750Z,7.63
2019-05-07T18:27:54.333Z,8.67
2019-05-07T18:30:27.093Z,8.47
2019-05-07T18:33:16.520Z,7.57
2019-05-07T18:35:52.497Z,8.20
2019-05-07T18:38:27.086Z,7.23
2019-05-07T18:41:02.368Z,8.60
2019-05-07T18:43:36.234Z,8.40
2019-05-07T18:46:09.018Z,8.80
2019-05-07T18:48:42.640Z,8.00
2019-05-07T18:51:15.025Z,7.50
2019-05-07T18:53:47.376Z,7.90
2019-05-07T18:56:19.105Z,8.70
2019-05-07T18:58:52.108Z,8.37
2019-05-07T19:01:28.295Z,7.37
2019-05-07T19:04:02.060Z,8.03
2019-05-07T19:06:34.405Z,8.97
2019-05-07T19:09:07.432Z,8.20
2019-05-07T19:11:39.192Z,7.33
2019-05-07T19:14:13.402Z,8.50
2019-05-07T19:16:45.872Z,8.70
2019-05-07T19:19:21.627Z,8.23
2019-05-07T19:21:53.701Z,8.67
2019-05-07T19:24:26.601Z,8.70
2019-05-07T19:26:59.209Z,7.40
2019-05-07T19:29:32.574Z,8.23
2019-05-07T19:32:18.390Z,8.30
2019-05-07T19:34:50.873Z,8.80
2019-05-07T19:37:24.854Z,8.20
2019-05-07T19:40:01.882Z,9.00
2019-05-07T19:42:32.011Z,8.90
2019-05-07T19:45:04.494Z,9.27
2019-05-07T19:47:37.182Z,8.70
2019-05-07T19:50:09.077Z,9.03
2019-05-07T19:52:44.806Z,8.43
2019-05-07T19:55:17.597Z,8.07
2019-05-07T19:57:52.060Z,7.93
2019-05-07T20:00:23.873Z,8.27
2019-05-07T20:02:57.273Z,8.10
2019-05-07T20:05:32.172Z,8.43
2019-05-07T20:08:04.812Z,8.53
2019-05-07T20:10:38.016Z,8.93
2019-05-07T20:13:12.306Z,9.93
2019-05-07T20:15:46.249Z,9.87
2019-05-07T20:18:21.822Z,9.50
2019-05-07T20:20:53.924Z,10.23
2019-05-07T20:23:27.082Z,8.90
2019-05-07T20:25:59.756Z,9.20
2019-05-07T20:28:32.601Z,9.37
2019-05-07T20:31:04.749Z,9.63
2019-05-07T20:33:37.546Z,10.00
2019-05-07T20:36:08.601Z,9.63
2019-05-07T20:38:42.706Z,9.77
2019-05-07T20:41:16.605Z,9.90
2019-05-07T20:43:49.041Z,10.87
2019-05-07T20:46:23.090Z,9.90
2019-05-07T20:48:55.395Z,10.37
2019-05-07T20:51:27.733Z,11.27
2019-05-07T20:54:07.342Z,10.67
2019-05-07T20:56:42.001Z,9.40
2019-05-07T20:59:14.929Z,10.83
2019-05-07T21:01:46.812Z,9.47
2019-05-07T21:04:18.365Z,10.17
2019-05-07T21:06:52.550Z,9.53
2019-05-07T21:09:27.183Z,9.10
2019-05-07T21:12:02.968Z,10.20
2019-05-07T21:14:37.565Z,9.63
2019-05-07T21:17:09.402Z,9.20
2019-05-07T21:19:42.991Z,9.40
2019-05-07T21:22:14.508Z,9.43
2019-05-07T21:24:46.920Z,8.87
2019-05-07T21:27:18.660Z,9.30
2019-05-07T21:29:52.758Z,9.00
2019-05-07T21:32:24.283Z,9.00
2019-05-07T21:34:57.086Z,8.80
2019-05-07T21:37:28.634Z,8.87
2019-05-07T21:40:02.474Z,9.00
2019-05-07T21:42:35.322Z,9.77
2019-05-07T21:45:09.994Z,9.23
2019-05-07T21:47:44.185Z,8.10
2019-05-07T21:50:17.074Z,8.83
2019-05-07T21:53:09.394Z,8.40
2019-05-07T21:55:58.891Z,8.83
2019-05-07T21:58:23.421Z,9.07
2019-05-07T22:01:16.109Z,9.40
2019-05-07T22:03:52.371Z,8.30
2019-05-07T22:06:25.101Z,8.80
2019-05-07T22:08:57.465Z,9.17
2019-05-07T22:11:32.169Z,8.03
2019-05-07T22:14:03.625Z,8.87
2019-05-07T22:16:37.668Z,8.63
2019-05-07T22:19:12.135Z,8.63
2019-05-07T22:21:45.013Z,8.10
2019-05-07T22:24:16.417Z,8.10
2019-05-07T22:26:49.229Z,8.47
2019-05-07T22:29:22.711Z,7.70
2019-05-07T22:32:03.073Z,7.97
2019-05-07T22:34:36.614Z,7.73
2019-05-07T22:37:12.663Z,8.20
2019-05-07T22:39:46.863Z,7.43
2019-05-07T22:42:22.371Z,7.63
2019-05-07T22:44:53.713Z,7.13
2019-05-07T22:47:28.685Z,7.23
2019-05-07T22:50:02.825Z,7.03
2019-05-07T22:52:36.610Z,7.37
2019-05-07T22:55:09.109Z,7.30
2019-05-07T22:57:43.369Z,7.17
2019-05-07T23:00:22.631Z,7.67
2019-05-07T23:02:55.413Z,7.23
2019-05-07T23:05:29.552Z,7.17
2019-05-07T23:08:03.473Z,6.17
2019-05-07T23:10:38.099Z,6.60
2019-05-07T23:13:12.822Z,6.60
2019-05-07T23:15:44.424Z,6.40
2019-05-07T23:18:16.130Z,5.70
2019-05-07T23:20:48.713Z,6.67
2019-05-07T23:23:21.870Z,6.33
2019-05-07T23:25:54.294Z,6.13
2019-05-07T23:28:26.623Z,6.87
2019-05-07T23:30:59.721Z,6.67
2019-05-07T23:33:32.178Z,6.80
2019-05-07T23:36:03.865Z,6.60
2019-05-07T23:38:35.554Z,7.23
2019-05-07T23:41:23.997Z,6.73
2019-05-07T23:44:17.929Z,6.50
2019-05-07T23:46:51.961Z,6.40
2019-05-07T23:49:23.527Z,6.80
2019-05-07T23:51:56.880Z,6.03
2019-05-07T23:54:31.720Z,5.60
2019-05-07T23:57:08.845Z,5.67
2019-05-07T23:59:39.330Z,6.73
